Snoqualmie River: Carnation station

back to: Snoqualmie river
Carnation station Summary - (NOAA Hydrograph: CRNW1)
flood stage: 54.0 ft
Latest reading:
Thu11/26 04:15 am 47.95 ft 5400 cfs (+80/hr)
Past 24hr max:
Wed11/25 03:15 pm 48.17 ft 5980 cfs
Forecasted crests: (published Wed 11/25/20 02:35 pm)
Wed11/25 10:00 pm 48.19 ft 6048 cfs
Sat11/28 10:00 pm 47.35 ft 4038 cfs

Carnation station Details

Latest Readings

Last 100 Readings:
Thu11/26 04:15 am 47.95 ft 5400 cfs
Thu11/26 04:00 am 47.94 ft 5380 cfs
Thu11/26 03:45 am 47.95 ft 5400 cfs
Thu11/26 03:30 am 47.96 ft 5430 cfs
Thu11/26 03:15 am 47.97 ft 5450 cfs
Thu11/26 03:00 am 47.96 ft 5430 cfs
Thu11/26 02:45 am 47.97 ft 5450 cfs
Thu11/26 02:30 am 47.99 ft 5500 cfs
Thu11/26 02:15 am 47.99 ft 5500 cfs
Thu11/26 02:00 am 47.98 ft 5470 cfs
Thu11/26 01:45 am 48.0 ft 5520 cfs
Thu11/26 01:30 am 48.01 ft 5550 cfs
Thu11/26 01:15 am 48.03 ft 5600 cfs
Thu11/26 01:00 am 48.02 ft 5580 cfs
Thu11/26 12:45 am 48.03 ft 5600 cfs
Thu11/26 12:30 am 48.03 ft 5600 cfs
Thu11/26 12:15 am 48.05 ft 5660 cfs
Thu11/26 12:00 am 48.03 ft 5600 cfs
Wed11/25 11:45 pm 48.05 ft 5660 cfs
Wed11/25 11:30 pm 48.06 ft 5680 cfs
Wed11/25 11:15 pm 48.05 ft 5660 cfs
Wed11/25 11:00 pm 48.07 ft 5710 cfs
Wed11/25 10:45 pm 48.06 ft 5680 cfs
Wed11/25 10:30 pm 48.07 ft 5710 cfs
Wed11/25 10:15 pm 48.06 ft 5680 cfs
Wed11/25 10:00 pm 48.08 ft 5740 cfs
Wed11/25 09:45 pm 48.08 ft 5740 cfs
Wed11/25 09:30 pm 48.08 ft 5740 cfs
Wed11/25 09:15 pm 48.1 ft 5790 cfs
Wed11/25 09:00 pm 48.09 ft 5760 cfs
Wed11/25 08:45 pm 48.11 ft 5820 cfs
Wed11/25 08:30 pm 48.12 ft 5850 cfs
Wed11/25 08:15 pm 48.11 ft 5820 cfs
Wed11/25 08:00 pm 48.12 ft 5850 cfs
Wed11/25 07:45 pm 48.13 ft 5870 cfs
Wed11/25 07:30 pm 48.14 ft 5900 cfs
Wed11/25 07:15 pm 48.12 ft 5850 cfs
Wed11/25 07:00 pm 48.15 ft 5930 cfs
Wed11/25 06:45 pm 48.14 ft 5900 cfs
Wed11/25 06:30 pm 48.13 ft 5870 cfs
Wed11/25 06:15 pm 48.15 ft 5930 cfs
Wed11/25 06:00 pm 48.13 ft 5870 cfs
Wed11/25 05:45 pm 48.16 ft 5960 cfs
Wed11/25 05:30 pm 48.16 ft 5960 cfs
Wed11/25 05:15 pm 48.15 ft 5930 cfs
Wed11/25 05:00 pm 48.16 ft 5960 cfs
Wed11/25 04:45 pm 48.16 ft 5960 cfs
Wed11/25 04:30 pm 48.16 ft 5960 cfs
Wed11/25 04:15 pm 48.16 ft 5960 cfs
Wed11/25 04:00 pm 48.16 ft 5960 cfs
Wed11/25 03:45 pm 48.15 ft 5930 cfs
Wed11/25 03:30 pm 48.17 ft 5980 cfs
Wed11/25 03:15 pm 48.17 ft 5980 cfs
Wed11/25 03:00 pm 48.15 ft 5930 cfs
Wed11/25 02:45 pm 48.15 ft 5930 cfs
Wed11/25 02:30 pm 48.14 ft 5900 cfs
Wed11/25 02:15 pm 48.16 ft 5960 cfs
Wed11/25 02:00 pm 48.15 ft 5930 cfs
Wed11/25 01:45 pm 48.14 ft 5900 cfs
Wed11/25 01:30 pm 48.15 ft 5930 cfs
Wed11/25 01:15 pm 48.14 ft 5900 cfs
Wed11/25 01:00 pm 48.15 ft 5930 cfs
Wed11/25 12:45 pm 48.14 ft 5900 cfs
Wed11/25 12:30 pm 48.14 ft 5900 cfs
Wed11/25 12:15 pm 48.14 ft 5900 cfs
Wed11/25 12:00 pm 48.15 ft 5930 cfs
Wed11/25 11:45 am 48.13 ft 5870 cfs
Wed11/25 11:30 am 48.13 ft 5870 cfs
Wed11/25 11:15 am 48.13 ft 5870 cfs
Wed11/25 11:00 am 48.13 ft 5870 cfs
Wed11/25 10:45 am 48.13 ft 5870 cfs
Wed11/25 10:30 am 48.13 ft 5870 cfs
Wed11/25 10:15 am 48.13 ft 5870 cfs
Wed11/25 10:00 am 48.13 ft 5870 cfs
Wed11/25 09:45 am 48.11 ft 5820 cfs
Wed11/25 09:30 am 48.11 ft 5820 cfs
Wed11/25 09:15 am 48.1 ft 5790 cfs
Wed11/25 09:00 am 48.1 ft 5790 cfs
Wed11/25 08:45 am 48.12 ft 5850 cfs
Wed11/25 08:30 am 48.11 ft 5820 cfs
Wed11/25 08:15 am 48.13 ft 5870 cfs
Wed11/25 08:00 am 48.12 ft 5850 cfs
Wed11/25 07:45 am 48.09 ft 5760 cfs
Wed11/25 07:30 am 48.09 ft 5760 cfs
Wed11/25 07:15 am 48.08 ft 5740 cfs
Wed11/25 07:00 am 48.05 ft 5660 cfs
Wed11/25 06:45 am 48.05 ft 5660 cfs
Wed11/25 06:30 am 48.04 ft 5630 cfs
Wed11/25 06:15 am 48.0 ft 5520 cfs
Wed11/25 06:00 am 48.0 ft 5520 cfs
Wed11/25 05:45 am 47.97 ft 5450 cfs
Wed11/25 05:30 am 47.94 ft 5380 cfs
Wed11/25 05:15 am 47.93 ft 5350 cfs
Wed11/25 05:00 am 47.9 ft 5280 cfs
Wed11/25 04:45 am 47.85 ft 5160 cfs
Wed11/25 04:30 am 47.84 ft 5140 cfs
Wed11/25 04:15 am 47.79 ft 5020 cfs
Wed11/25 04:00 am 47.76 ft 4950 cfs
Wed11/25 03:45 am 47.75 ft 4930 cfs
Wed11/25 03:30 am 47.71 ft 4840 cfs

Latest Forecasts

Currently Forecasted Readings:
Wed11/25 04:00 pm 48.19 ft 6046 cfs
Wed11/25 10:00 pm 48.19 ft 6048 cfs
Thu11/26 04:00 am 48.05 ft 5654 cfs
Thu11/26 10:00 am 47.83 ft 5118 cfs
Thu11/26 04:00 pm 47.62 ft 4632 cfs
Thu11/26 10:00 pm 47.45 ft 4265 cfs
Fri11/27 04:00 am 47.33 ft 4000 cfs
Fri11/27 10:00 am 47.23 ft 3783 cfs
Fri11/27 04:00 pm 47.12 ft 3573 cfs
Fri11/27 10:00 pm 47.02 ft 3381 cfs
Sat11/28 04:00 am 46.96 ft 3251 cfs
Sat11/28 10:00 am 47.02 ft 3366 cfs
Sat11/28 04:00 pm 47.21 ft 3746 cfs
Sat11/28 10:00 pm 47.35 ft 4038 cfs
Sun11/29 04:00 am 47.33 ft 4012 cfs
Sun11/29 10:00 am 47.21 ft 3760 cfs
Sun11/29 04:00 pm 47.06 ft 3453 cfs
Sun11/29 10:00 pm 46.92 ft 3187 cfs
Mon11/30 04:00 am 46.82 ft 2985 cfs
Mon11/30 10:00 am 46.74 ft 2835 cfs
Mon11/30 04:00 pm 46.68 ft 2736 cfs
Mon11/30 10:00 pm 46.65 ft 2681 cfs
Tue12/01 04:00 am 46.62 ft 2634 cfs
Tue12/01 10:00 am 46.58 ft 2560 cfs
Tue12/01 04:00 pm 46.53 ft 2471 cfs
Tue12/01 10:00 pm 46.48 ft 2384 cfs
Wed12/02 04:00 am 46.43 ft 2306 cfs
Wed12/02 10:00 am 46.39 ft 2237 cfs
Wed12/02 04:00 pm 46.35 ft 2176 cfs
Wed12/02 10:00 pm 46.32 ft 2120 cfs
Thu12/03 04:00 am 46.29 ft 2071 cfs
Thu12/03 10:00 am 46.26 ft 2026 cfs
Thu12/03 04:00 pm 46.23 ft 1985 cfs
Thu12/03 10:00 pm 46.21 ft 1947 cfs
Fri12/04 04:00 am 46.19 ft 1911 cfs
Fri12/04 10:00 am 46.16 ft 1878 cfs
Fri12/04 04:00 pm 46.14 ft 1847 cfs
Fri12/04 10:00 pm 46.12 ft 1819 cfs
Sat12/05 04:00 am 46.11 ft 1791 cfs

Snoqualmie River flood gauge data supplied by the
National Weather Service Northwest River Forecast Center.

Sign up for Floodzilla alerts.